createdAt,value
2023-04-15T00:01:00.031Z,99490.44
2023-04-15T00:03:30.950Z,99483.75
2023-04-15T00:06:00.070Z,99488.84
2023-04-15T00:08:29.143Z,99486.31
2023-04-15T00:10:59.578Z,99483.66
2023-04-15T00:13:31.029Z,99487.25
2023-04-15T00:16:00.038Z,99482.88
2023-04-15T00:18:29.914Z,99481.94
2023-04-15T00:21:02.448Z,99492.66
2023-04-15T00:23:30.849Z,99480.44
2023-04-15T00:25:58.976Z,99474.19
2023-04-15T00:28:28.420Z,99484.69
2023-04-15T00:30:56.474Z,99471.72
2023-04-15T00:33:24.491Z,99475.97
2023-04-15T00:35:52.223Z,99474.25
2023-04-15T00:38:20.077Z,99476.06
2023-04-15T00:40:48.222Z,99478.06
2023-04-15T00:43:16.444Z,99476.56
2023-04-15T00:45:47.159Z,99475.97
2023-04-15T00:48:16.357Z,99474.50
2023-04-15T00:50:44.073Z,99477.44
2023-04-15T00:53:12.372Z,99477.72
2023-04-15T00:55:40.541Z,99473.41
2023-04-15T00:58:08.378Z,99479.63
2023-04-15T01:00:36.566Z,99471.84
2023-04-15T01:03:04.450Z,99468.38
2023-04-15T01:05:33.653Z,99483.22
2023-04-15T01:08:01.861Z,99485.09
2023-04-15T01:10:30.818Z,99482.56
2023-04-15T01:12:58.526Z,99478.25
2023-04-15T01:15:27.510Z,99474.81
2023-04-15T01:17:55.743Z,99469.69
2023-04-15T01:20:23.458Z,99467.16
2023-04-15T01:22:51.499Z,99472.47
2023-04-15T01:25:22.523Z,99461.25
2023-04-15T01:27:50.254Z,99478.84
2023-04-15T01:30:18.439Z,99470.94
2023-04-15T01:32:46.630Z,99480.41
2023-04-15T01:35:14.374Z,99474.13
2023-04-15T01:37:42.154Z,99475.81
2023-04-15T01:40:10.322Z,99471.94
2023-04-15T01:42:38.410Z,99461.34
2023-04-15T01:45:07.165Z,99482.25
2023-04-15T01:47:34.844Z,99470.63
2023-04-15T01:50:03.201Z,99475.81
2023-04-15T01:52:30.918Z,99467.84
2023-04-15T01:54:58.664Z,99478.59
2023-04-15T01:57:26.425Z,99475.47
2023-04-15T01:59:54.210Z,99477.78
2023-04-15T02:02:22.828Z,99476.31
2023-04-15T02:04:50.672Z,99473.88
2023-04-15T02:07:18.314Z,99471.47
2023-04-15T02:09:46.177Z,99476.03
2023-04-15T02:12:14.468Z,99479.03
2023-04-15T02:14:42.227Z,99469.72
2023-04-15T02:17:09.938Z,99477.63
2023-04-15T02:19:37.749Z,99471.56
2023-04-15T02:22:07.310Z,99480.53
2023-04-15T02:24:35.535Z,99478.91
2023-04-15T02:27:04.222Z,99470.22
2023-04-15T02:29:33.006Z,99471.06
2023-04-15T02:32:02.096Z,99470.28
2023-04-15T02:34:30.405Z,99468.75
2023-04-15T02:36:58.993Z,99476.63
2023-04-15T02:39:27.374Z,99472.44
2023-04-15T02:41:55.408Z,99478.72
2023-04-15T02:44:24.890Z,99478.88
2023-04-15T02:46:56.636Z,99467.50
2023-04-15T02:49:25.640Z,99468.56
2023-04-15T02:51:53.351Z,99473.75
2023-04-15T02:54:26.749Z,99470.09
2023-04-15T02:56:56.152Z,99463.19
2023-04-15T02:59:24.045Z,99468.47
2023-04-15T03:01:51.793Z,99487.03
2023-04-15T03:04:19.652Z,99483.84
2023-04-15T03:06:47.492Z,99495.41
2023-04-15T03:09:15.681Z,99493.09
2023-04-15T03:11:44.183Z,99488.00
2023-04-15T03:14:12.067Z,99487.94
2023-04-15T03:16:43.505Z,99488.81
2023-04-15T03:19:12.084Z,99492.22
2023-04-15T03:21:42.333Z,99485.06
2023-04-15T03:24:10.686Z,99471.88
2023-04-15T03:26:38.879Z,99477.91
2023-04-15T03:29:12.410Z,99476.19
2023-04-15T03:31:41.730Z,99485.81
2023-04-15T03:34:09.411Z,99482.34
2023-04-15T03:36:37.620Z,99488.50
2023-04-15T03:39:05.552Z,99492.06
2023-04-15T03:41:33.477Z,99500.03
2023-04-15T03:44:01.451Z,99494.78
2023-04-15T03:46:29.183Z,99494.78
2023-04-15T03:48:56.894Z,99500.88
2023-04-15T03:51:24.610Z,99497.19
2023-04-15T03:53:52.292Z,99493.69
2023-04-15T03:56:19.981Z,99488.50
2023-04-15T03:58:47.586Z,99482.47
2023-04-15T04:01:15.416Z,99490.63
2023-04-15T04:03:43.265Z,99482.88
2023-04-15T04:06:12.460Z,99489.22
2023-04-15T04:08:40.289Z,99483.50
2023-04-15T04:11:08.062Z,99485.44
2023-04-15T04:13:36.029Z,99490.06
2023-04-15T04:16:07.150Z,99486.78
2023-04-15T04:18:34.961Z,99493.88
2023-04-15T04:21:02.843Z,99491.47
2023-04-15T04:23:30.606Z,99499.34
2023-04-15T04:25:58.266Z,99503.09
2023-04-15T04:28:25.991Z,99503.94
2023-04-15T04:30:53.762Z,99503.09
2023-04-15T04:33:21.527Z,99509.16
2023-04-15T04:35:49.229Z,99511.72
2023-04-15T04:38:16.991Z,99501.16
2023-04-15T04:40:44.788Z,99504.72
2023-04-15T04:43:13.312Z,99500.28
2023-04-15T04:45:41.167Z,99498.72
2023-04-15T04:48:10.462Z,99506.44
2023-04-15T04:50:38.226Z,99513.41
2023-04-15T04:53:05.995Z,99508.91
2023-04-15T04:55:36.836Z,99511.56
2023-04-15T04:58:04.561Z,99513.63
2023-04-15T05:00:32.522Z,99512.66
2023-04-15T05:03:00.806Z,99516.22
2023-04-15T05:05:28.890Z,99511.03
2023-04-15T05:07:56.543Z,99523.34
2023-04-15T05:10:24.281Z,99514.75
2023-04-15T05:12:52.577Z,99527.06
2023-04-15T05:15:20.381Z,99518.56
2023-04-15T05:17:48.182Z,99536.03
2023-04-15T05:20:16.002Z,99530.09
2023-04-15T05:22:43.754Z,99519.69
2023-04-15T05:25:12.434Z,99528.38
2023-04-15T05:27:40.543Z,99533.75
2023-04-15T05:30:08.967Z,99531.25
2023-04-15T05:32:36.820Z,99537.66
2023-04-15T05:35:05.022Z,99541.22
2023-04-15T05:37:34.629Z,99540.47
2023-04-15T05:40:02.609Z,99550.03
2023-04-15T05:42:30.439Z,99546.50
2023-04-15T05:44:58.282Z,99541.28
2023-04-15T05:47:26.392Z,99540.38
2023-04-15T05:49:54.307Z,99551.53
2023-04-15T05:52:22.054Z,99543.66
2023-04-15T05:54:49.761Z,99531.97
2023-04-15T05:57:17.597Z,99544.09
2023-04-15T05:59:45.338Z,99550.03
2023-04-15T06:02:15.451Z,99543.78
2023-04-15T06:04:43.128Z,99548.84
2023-04-15T06:07:12.042Z,99551.28
2023-04-15T06:09:39.724Z,99550.19
2023-04-15T06:12:12.093Z,99543.00
2023-04-15T06:14:40.575Z,99543.69
2023-04-15T06:17:08.543Z,99538.28
2023-04-15T06:19:36.794Z,99550.28
2023-04-15T06:22:06.826Z,99550.03
2023-04-15T06:24:36.983Z,99541.13
2023-04-15T06:27:04.846Z,99552.31
2023-04-15T06:29:32.558Z,99558.22
2023-04-15T06:32:00.606Z,99560.66
2023-04-15T06:34:28.335Z,99569.25
2023-04-15T06:36:56.039Z,99564.28
2023-04-15T06:39:23.722Z,99577.84
2023-04-15T06:41:51.416Z,99570.22
2023-04-15T06:44:22.448Z,99571.56
2023-04-15T06:46:50.467Z,99577.97
2023-04-15T06:49:18.206Z,99579.94
2023-04-15T06:51:46.211Z,99573.00
2023-04-15T06:54:16.203Z,99567.19
2023-04-15T06:56:43.832Z,99567.19
2023-04-15T06:59:11.553Z,99573.34
2023-04-15T07:01:39.215Z,99569.06
2023-04-15T07:04:07.607Z,99563.94
2023-04-15T07:06:35.667Z,99563.22
2023-04-15T07:09:05.537Z,99571.41
2023-04-15T07:11:33.520Z,99566.34
2023-04-15T07:14:01.412Z,99556.69
2023-04-15T07:16:30.464Z,99558.00
2023-04-15T07:18:58.277Z,99554.59
2023-04-15T07:21:27.637Z,99563.84
2023-04-15T07:23:55.525Z,99565.13
2023-04-15T07:26:23.579Z,99550.63
2023-04-15T07:28:52.146Z,99565.09
2023-04-15T07:31:20.005Z,99555.78
2023-04-15T07:33:47.718Z,99553.44
2023-04-15T07:36:15.440Z,99568.78
2023-04-15T07:38:43.151Z,99563.91
2023-04-15T07:41:12.261Z,99559.13
2023-04-15T07:43:42.558Z,99557.94
2023-04-15T07:46:10.417Z,99561.44
2023-04-15T07:48:39.265Z,99565.31
2023-04-15T07:51:07.817Z,99562.34
2023-04-15T07:53:35.628Z,99567.94
2023-04-15T07:56:03.467Z,99568.28
2023-04-15T07:58:33.561Z,99556.34
2023-04-15T08:01:01.315Z,99552.13
2023-04-15T08:03:29.171Z,99562.09
2023-04-15T08:05:57.414Z,99552.09
2023-04-15T08:08:25.803Z,99561.91
2023-04-15T08:10:53.604Z,99565.25
2023-04-15T08:13:21.778Z,99556.81
2023-04-15T08:16:28.442Z,99559.97
2023-04-15T08:18:57.108Z,99550.25
2023-04-15T08:21:25.469Z,99550.75
2023-04-15T08:23:54.549Z,99555.66
2023-04-15T08:26:22.680Z,99557.84
2023-04-15T08:28:51.274Z,99557.44
2023-04-15T08:31:20.178Z,99569.38
2023-04-15T08:33:48.375Z,99559.94
2023-04-15T08:36:16.265Z,99571.91
2023-04-15T08:38:45.604Z,99563.44
2023-04-15T08:41:25.773Z,99570.41
2023-04-15T08:44:06.620Z,99573.56
2023-04-15T08:46:37.779Z,99567.91
2023-04-15T08:49:09.484Z,99570.31
2023-04-15T08:51:38.040Z,99566.03
2023-04-15T08:54:06.498Z,99567.91
2023-04-15T08:56:35.012Z,99565.06
2023-04-15T08:59:03.958Z,99569.53
2023-04-15T09:01:33.227Z,99571.75
2023-04-15T09:04:04.280Z,99583.47
2023-04-15T09:06:31.954Z,99567.13
2023-04-15T09:08:59.946Z,99580.00
2023-04-15T09:11:31.394Z,99571.03
2023-04-15T09:13:59.413Z,99578.34
2023-04-15T09:16:27.566Z,99576.03
2023-04-15T09:18:55.662Z,99591.56
2023-04-15T09:21:24.732Z,99587.25
2023-04-15T09:24:01.853Z,99590.91
2023-04-15T09:26:40.453Z,99589.56
2023-04-15T09:29:14.780Z,99590.84
2023-04-15T09:31:43.441Z,99595.81
2023-04-15T09:34:11.674Z,99582.22
2023-04-15T09:36:54.897Z,99589.94
2023-04-15T09:39:22.851Z,99594.91
2023-04-15T09:42:07.474Z,99595.75
2023-04-15T09:44:37.958Z,99606.94
2023-04-15T09:47:06.485Z,99600.28
2023-04-15T09:49:34.274Z,99597.28
2023-04-15T09:52:05.986Z,99608.13
2023-04-15T09:54:39.145Z,99606.75
2023-04-15T09:57:10.214Z,99605.66
2023-04-15T09:59:38.594Z,99610.69
2023-04-15T10:02:07.493Z,99601.34
2023-04-15T10:04:39.685Z,99601.91
2023-04-15T10:07:09.835Z,99605.13
2023-04-15T10:09:39.551Z,99611.13
2023-04-15T10:12:07.549Z,99598.69
2023-04-15T10:14:38.457Z,99610.34
2023-04-15T10:17:07.787Z,99612.91
2023-04-15T10:19:38.451Z,99609.91
2023-04-15T10:22:08.303Z,99608.19
2023-04-15T10:24:37.311Z,99612.03
2023-04-15T10:27:05.772Z,99614.28
2023-04-15T10:29:34.249Z,99617.28
2023-04-15T10:32:03.745Z,99609.72
2023-04-15T10:34:32.846Z,99617.00
2023-04-15T10:37:04.523Z,99612.88
2023-04-15T10:39:35.124Z,99620.50
2023-04-15T10:42:10.844Z,99623.34
2023-04-15T10:44:49.673Z,99630.78
2023-04-15T10:47:20.198Z,99628.47
2023-04-15T10:50:00.444Z,99622.41
2023-04-15T10:52:29.644Z,99640.03
2023-04-15T10:55:18.369Z,99634.03
2023-04-15T10:57:46.211Z,99631.34
2023-04-15T11:00:16.418Z,99645.47
2023-04-15T11:03:19.175Z,99645.75
2023-04-15T11:05:52.469Z,99640.38
2023-04-15T11:08:21.356Z,99638.75
2023-04-15T11:10:48.970Z,99643.56
2023-04-15T11:13:25.119Z,99646.88
2023-04-15T11:15:58.318Z,99646.50
2023-04-15T11:18:31.326Z,99641.63
2023-04-15T11:21:03.490Z,99647.63
2023-04-15T11:23:47.007Z,99644.25
2023-04-15T11:26:15.768Z,99644.88
2023-04-15T11:28:46.674Z,99640.97
2023-04-15T11:31:18.206Z,99639.00
2023-04-15T11:33:59.037Z,99649.19
2023-04-15T11:36:29.269Z,99644.16
2023-04-15T11:38:59.507Z,99635.94
2023-04-15T11:41:27.501Z,99645.72
2023-04-15T11:43:55.318Z,99648.41
2023-04-15T11:46:33.419Z,99647.19
2023-04-15T11:49:01.644Z,99646.34
2023-04-15T11:51:34.507Z,99653.22
2023-04-15T11:54:03.194Z,99648.81
2023-04-15T11:56:32.039Z,99639.88
2023-04-15T11:59:00.316Z,99659.72
2023-04-15T12:01:36.351Z,99657.38
2023-04-15T12:04:22.579Z,99662.41
2023-04-15T12:06:53.447Z,99667.53
2023-04-15T12:09:21.712Z,99667.53
2023-04-15T12:11:51.691Z,99679.41
2023-04-15T12:14:41.109Z,99669.13
2023-04-15T12:17:11.428Z,99678.06
2023-04-15T12:19:42.271Z,99681.38
2023-04-15T12:22:17.585Z,99686.53
2023-04-15T12:24:49.449Z,99696.09
2023-04-15T12:27:17.697Z,99681.50
2023-04-15T12:29:45.576Z,99681.75
2023-04-15T12:32:20.849Z,99691.66
2023-04-15T12:34:55.164Z,99709.66
2023-04-15T12:37:24.099Z,99711.13
2023-04-15T12:39:52.288Z,99709.56
2023-04-15T12:42:20.944Z,99705.75
2023-04-15T12:44:48.587Z,99720.44
2023-04-15T12:47:16.358Z,99726.47
2023-04-15T12:49:47.084Z,99725.72
2023-04-15T12:52:17.031Z,99718.63
2023-04-15T12:54:44.786Z,99733.69
2023-04-15T12:57:12.453Z,99725.59
2023-04-15T12:59:40.514Z,99730.41
2023-04-15T13:02:08.929Z,99728.41
2023-04-15T13:04:38.687Z,99729.16
2023-04-15T13:07:06.575Z,99732.19
2023-04-15T13:09:34.358Z,99732.56
2023-04-15T13:12:05.342Z,99735.63
2023-04-15T13:14:33.074Z,99720.44
2023-04-15T13:17:00.816Z,99719.97
2023-04-15T13:19:28.626Z,99735.22
2023-04-15T13:21:56.321Z,99728.97
2023-04-15T13:24:24.087Z,99740.22
2023-04-15T13:26:52.087Z,99747.16
2023-04-15T13:29:20.147Z,99749.41
2023-04-15T13:31:47.957Z,99758.09
2023-04-15T13:34:15.707Z,99756.47
2023-04-15T13:36:43.379Z,99751.31
2023-04-15T13:39:11.295Z,99767.22
2023-04-15T13:41:39.067Z,99763.78
2023-04-15T13:44:09.094Z,99773.91
2023-04-15T13:46:37.789Z,99767.78
2023-04-15T13:49:06.079Z,99772.53
2023-04-15T13:51:36.030Z,99779.13
2023-04-15T13:54:04.235Z,99776.91
2023-04-15T13:56:37.888Z,99778.22
2023-04-15T13:59:06.645Z,99789.81
2023-04-15T14:01:35.364Z,99781.13
2023-04-15T14:04:03.306Z,99786.38
2023-04-15T14:06:33.345Z,99787.34
2023-04-15T14:09:01.192Z,99795.41
2023-04-15T14:11:29.960Z,99801.66
2023-04-15T14:13:57.674Z,99795.88
2023-04-15T14:16:27.520Z,99805.00
2023-04-15T14:18:58.008Z,99799.88
2023-04-15T14:21:27.841Z,99794.38
2023-04-15T14:23:55.776Z,99797.19
2023-04-15T14:26:23.452Z,99797.91
2023-04-15T14:28:52.686Z,99811.81
2023-04-15T14:31:20.721Z,99814.50
2023-04-15T14:33:48.502Z,99815.00
2023-04-15T14:36:16.279Z,99818.31
2023-04-15T14:38:45.776Z,99814.66
2023-04-15T14:41:14.729Z,99821.84
2023-04-15T14:43:42.407Z,99825.66
2023-04-15T14:46:11.545Z,99833.06
2023-04-15T14:48:39.345Z,99842.25
2023-04-15T14:51:07.329Z,99831.81
2023-04-15T14:53:35.062Z,99841.72
2023-04-15T14:56:02.888Z,99844.28
2023-04-15T14:58:30.877Z,99848.69
2023-04-15T15:00:59.067Z,99845.25
2023-04-15T15:03:26.982Z,99852.47
2023-04-15T15:05:55.089Z,99853.41
2023-04-15T15:08:23.134Z,99864.41
2023-04-15T15:10:53.042Z,99865.91
2023-04-15T15:13:25.624Z,99869.34
2023-04-15T15:15:55.512Z,99865.03
2023-04-15T15:18:25.485Z,99871.31
2023-04-15T15:20:53.265Z,99882.06
2023-04-15T15:23:20.973Z,99882.06
2023-04-15T15:25:48.841Z,99890.34
2023-04-15T15:28:17.444Z,99889.06
2023-04-15T15:30:45.552Z,99898.72
2023-04-15T15:33:13.264Z,99901.94
2023-04-15T15:35:41.129Z,99918.50
2023-04-15T15:38:11.171Z,99915.59
2023-04-15T15:40:41.167Z,99932.13
2023-04-15T15:43:09.235Z,99939.88
2023-04-15T15:45:36.971Z,99933.28
2023-04-15T15:48:05.803Z,99952.09
2023-04-15T15:50:34.781Z,99969.50
2023-04-15T15:53:02.577Z,99964.19
2023-04-15T15:55:30.529Z,99958.78
2023-04-15T15:57:58.287Z,99974.44
2023-04-15T16:00:26.341Z,99978.50
2023-04-15T16:03:06.162Z,99982.72
2023-04-15T16:05:40.511Z,99995.56
2023-04-15T16:08:08.324Z,99999.72
2023-04-15T16:10:36.088Z,99998.06
2023-04-15T16:13:03.865Z,99991.38
2023-04-15T16:15:32.518Z,99991.28
2023-04-15T16:18:00.659Z,100007.47
2023-04-15T16:20:28.910Z,100010.56
2023-04-15T16:22:59.398Z,100016.69
2023-04-15T16:25:27.210Z,100017.06
2023-04-15T16:28:05.536Z,100029.03
2023-04-15T16:30:44.173Z,100029.78
2023-04-15T16:33:11.879Z,100041.13
2023-04-15T16:35:39.583Z,100039.97
2023-04-15T16:38:07.335Z,100045.19
2023-04-15T16:40:36.660Z,100045.31
2023-04-15T16:43:08.203Z,100063.94
2023-04-15T16:45:35.900Z,100057.13
2023-04-15T16:48:03.828Z,100068.78
2023-04-15T16:50:31.689Z,100072.31
2023-04-15T16:52:59.459Z,100078.91
2023-04-15T16:55:27.492Z,100092.63
2023-04-15T16:58:02.772Z,100094.66
2023-04-15T17:00:32.823Z,100094.97
2023-04-15T17:03:01.263Z,100094.38
2023-04-15T17:05:31.824Z,100109.72
2023-04-15T17:07:59.829Z,100105.78
2023-04-15T17:10:28.202Z,100116.78
2023-04-15T17:13:02.141Z,100114.38
2023-04-15T17:15:31.436Z,100099.75
2023-04-15T17:17:59.285Z,100113.84
2023-04-15T17:20:27.282Z,100113.22
2023-04-15T17:22:54.980Z,100130.06
2023-04-15T17:25:23.544Z,100129.44
2023-04-15T17:27:51.204Z,100135.72
2023-04-15T17:30:19.935Z,100143.06
2023-04-15T17:32:47.923Z,100145.13
2023-04-15T17:35:16.308Z,100154.25
2023-04-15T17:37:44.028Z,100151.72
2023-04-15T17:40:12.400Z,100156.34
2023-04-15T17:42:40.608Z,100160.06
2023-04-15T17:45:09.206Z,100151.41
2023-04-15T17:47:36.949Z,100165.09
2023-04-15T17:50:05.269Z,100175.31
2023-04-15T17:52:35.437Z,100175.78
2023-04-15T17:55:03.190Z,100185.91
2023-04-15T17:57:31.161Z,100189.91
2023-04-15T17:59:58.982Z,100191.81
2023-04-15T18:02:28.030Z,100192.25
2023-04-15T18:04:58.044Z,100203.88
2023-04-15T18:07:25.823Z,100207.81
2023-04-15T18:09:55.987Z,100212.44
2023-04-15T18:12:23.875Z,100220.56
2023-04-15T18:14:51.617Z,100225.22
2023-04-15T18:17:20.230Z,100233.22
2023-04-15T18:19:48.248Z,100230.56
2023-04-15T18:22:16.114Z,100233.38
2023-04-15T18:24:47.246Z,100227.16
2023-04-15T18:27:16.100Z,100231.63
2023-04-15T18:29:49.100Z,100226.06
2023-04-15T18:32:20.091Z,100242.75
2023-04-15T18:34:48.574Z,100236.63
2023-04-15T18:37:16.841Z,100244.63
2023-04-15T18:39:46.008Z,100245.56
2023-04-15T18:42:17.064Z,100258.91
2023-04-15T18:44:44.927Z,100243.38
2023-04-15T18:47:13.784Z,100257.81
2023-04-15T18:49:44.595Z,100258.63
2023-04-15T18:52:13.150Z,100256.50
2023-04-15T18:54:40.933Z,100266.97
2023-04-15T18:57:09.063Z,100271.44
2023-04-15T18:59:37.059Z,100263.78
2023-04-15T19:02:11.863Z,100276.69
2023-04-15T19:04:40.180Z,100274.09
2023-04-15T19:07:18.728Z,100274.19
2023-04-15T19:09:48.203Z,100283.78
2023-04-15T19:12:19.013Z,100286.59
2023-04-15T19:14:48.272Z,100293.00
2023-04-15T19:17:17.565Z,100299.16
2023-04-15T19:19:45.953Z,100298.41
2023-04-15T19:22:15.629Z,100295.94
2023-04-15T19:24:44.062Z,100300.41
2023-04-15T19:27:11.859Z,100282.91
2023-04-15T19:29:39.643Z,100304.03
2023-04-15T19:32:08.017Z,100295.28
2023-04-15T19:34:35.790Z,100294.75
2023-04-15T19:37:03.587Z,100311.56
2023-04-15T19:39:31.376Z,100305.41
2023-04-15T19:41:59.507Z,100303.69
2023-04-15T19:44:27.208Z,100311.81
2023-04-15T19:46:55.363Z,100323.03
2023-04-15T19:49:23.232Z,100324.03
2023-04-15T19:51:51.294Z,100317.97
2023-04-15T19:54:19.032Z,100315.50
2023-04-15T19:56:46.685Z,100330.34
2023-04-15T19:59:14.995Z,100339.09
2023-04-15T20:01:42.959Z,100331.97
2023-04-15T20:04:11.131Z,100328.75
2023-04-15T20:06:39.372Z,100337.63
2023-04-15T20:09:09.001Z,100320.34
2023-04-15T20:12:45.888Z,100339.69
2023-04-15T20:14:26.668Z,100330.94
2023-04-15T20:16:54.429Z,100337.16
2023-04-15T20:19:22.891Z,100337.16
2023-04-15T20:21:52.540Z,100322.09
2023-04-15T20:24:21.772Z,100329.13
2023-04-15T20:26:49.422Z,100339.81
2023-04-15T20:29:17.262Z,100335.28
2023-04-15T20:31:45.132Z,100336.91
2023-04-15T20:34:12.907Z,100342.25
2023-04-15T20:36:42.404Z,100337.03
2023-04-15T20:39:10.206Z,100338.94
2023-04-15T20:41:37.921Z,100338.09
2023-04-15T20:44:05.761Z,100350.38
2023-04-15T20:46:33.427Z,100333.56
2023-04-15T20:49:01.191Z,100336.44
2023-04-15T20:51:49.448Z,100342.34
2023-04-15T20:54:19.526Z,100346.91
2023-04-15T20:56:47.198Z,100353.91
2023-04-15T20:59:15.027Z,100345.22
2023-04-15T21:01:42.860Z,100353.97
2023-04-15T21:04:10.708Z,100347.69
2023-04-15T21:06:38.396Z,100361.81
2023-04-15T21:09:06.351Z,100359.31
2023-04-15T21:11:53.246Z,100361.16
2023-04-15T21:14:22.299Z,100368.28
2023-04-15T21:16:51.853Z,100370.91
2023-04-15T21:19:19.646Z,100372.69
2023-04-15T21:21:47.331Z,100366.56
2023-04-15T21:24:15.009Z,100376.03
2023-04-15T21:26:42.735Z,100370.84
2023-04-15T21:29:11.956Z,100378.66
2023-04-15T21:31:40.804Z,100376.91
2023-04-15T21:34:09.227Z,100375.03
2023-04-15T21:36:38.301Z,100362.00
2023-04-15T21:39:06.391Z,100387.44
2023-04-15T21:41:34.220Z,100384.09
2023-04-15T21:44:02.196Z,100396.28
2023-04-15T21:46:32.841Z,100388.38
2023-04-15T21:49:03.490Z,100388.50
2023-04-15T21:51:31.599Z,100397.06
2023-04-15T21:53:59.688Z,100389.25
2023-04-15T21:56:28.523Z,100401.53
2023-04-15T21:58:57.955Z,100406.00
2023-04-15T22:01:26.783Z,100395.41
2023-04-15T22:03:54.896Z,100411.41
2023-04-15T22:06:23.006Z,100406.97
2023-04-15T22:08:56.869Z,100414.97
2023-04-15T22:11:30.399Z,100415.13
2023-04-15T22:13:59.004Z,100409.16
2023-04-15T22:16:27.715Z,100406.38
2023-04-15T22:18:55.832Z,100422.97
2023-04-15T22:21:23.869Z,100421.19
2023-04-15T22:23:51.951Z,100420.41
2023-04-15T22:26:20.539Z,100430.81
2023-04-15T22:28:48.263Z,100422.94
2023-04-15T22:31:15.999Z,100433.47
2023-04-15T22:33:43.640Z,100433.63
2023-04-15T22:36:11.538Z,100437.19
2023-04-15T22:38:39.251Z,100436.28
2023-04-15T22:41:07.070Z,100433.66
2023-04-15T22:43:34.805Z,100431.94
2023-04-15T22:46:02.794Z,100439.94
2023-04-15T22:48:30.693Z,100443.44
2023-04-15T22:50:58.422Z,100452.16
2023-04-15T22:53:26.411Z,100447.81
2023-04-15T22:55:54.212Z,100447.88
2023-04-15T22:58:22.065Z,100459.22
2023-04-15T23:00:50.195Z,100460.91
2023-04-15T23:03:18.206Z,100460.91
2023-04-15T23:05:46.714Z,100443.47
2023-04-15T23:08:14.529Z,100460.97
2023-04-15T23:10:44.622Z,100467.97
2023-04-15T23:13:12.364Z,100450.50
2023-04-15T23:15:40.588Z,100466.22
2023-04-15T23:18:08.357Z,100471.66
2023-04-15T23:20:36.758Z,100470.78
2023-04-15T23:23:04.518Z,100461.16
2023-04-15T23:25:32.295Z,100470.81
2023-04-15T23:28:00.233Z,100469.97
2023-04-15T23:30:27.990Z,100475.28
2023-04-15T23:32:55.865Z,100467.44
2023-04-15T23:35:24.490Z,100471.56
2023-04-15T23:37:52.223Z,100475.19
2023-04-15T23:40:19.983Z,100475.00
2023-04-15T23:42:47.756Z,100471.50
2023-04-15T23:45:15.519Z,100469.69
2023-04-15T23:47:43.225Z,100476.72
2023-04-15T23:50:11.283Z,100479.19
2023-04-15T23:52:39.245Z,100469.69
2023-04-15T23:55:07.858Z,100478.19
2023-04-15T23:57:35.528Z,100480.84
